Time;durP1;ratioP1;P1;durP2;ratioP2;P2;SDS_P1;SDS_P2;PMS_P1;PMS_P2;Temp;Humidity;BMP_temperature;BMP_pressure;BME280_temperature;BME280_humidity;BME280_pressure;Samples;Min_cycle;Max_cycle;Signal;HPM_P1;HPM_P2
2021/11/03 00:00:26;;;;;;;2.88;2.50;;;;;;;6.92;79.13;97483.38;2625668;54;20589;-70
2021/11/03 00:02:56;;;;;;;3.90;2.75;;;;;;;6.87;79.21;97477.91;2625552;39;20434;-70
2021/11/03 00:05:26;;;;;;;7.28;3.58;;;;;;;6.85;79.18;97479.94;2625351;54;20026;-70
2021/11/03 00:07:58;;;;;;;3.92;3.00;;;;;;;6.79;78.94;97466.81;2624801;54;20049;-71
2021/11/03 00:10:28;;;;;;;5.78;3.30;;;;;;;6.83;79.89;97458.31;2623783;39;20425;-69
2021/11/03 00:12:58;;;;;;;4.25;2.85;;;;;;;6.84;79.28;97451.25;2623350;46;20030;-70
2021/11/03 00:15:27;;;;;;;6.63;3.40;;;;;;;6.81;79.34;97441.94;2624643;47;20053;-71
2021/11/03 00:17:57;;;;;;;6.18;3.38;;;;;;;6.72;79.22;97437.09;2625455;54;20018;-70
2021/11/03 00:20:26;;;;;;;4.35;3.30;;;;;;;6.65;79.26;97431.81;2625344;54;20053;-70
2021/11/03 00:22:59;;;;;;;4.90;2.95;;;;;;;6.68;80.12;97426.97;2624918;54;20061;-70
2021/11/03 00:25:29;;;;;;;3.08;2.30;;;;;;;6.70;79.60;97418.91;2626189;39;20422;-69
2021/11/03 00:27:59;;;;;;;3.08;2.40;;;;;;;6.58;79.81;97412.66;2625391;54;20030;-69
2021/11/03 00:30:29;;;;;;;2.45;2.25;;;;;;;6.53;79.85;97408.00;2625284;54;20091;-70
2021/11/03 00:32:58;;;;;;;2.75;2.20;;;;;;;6.55;79.80;97402.53;2625431;39;20425;-71
2021/11/03 00:35:28;;;;;;;2.70;2.50;;;;;;;6.54;80.08;97387.81;2625235;54;20031;-71
2021/11/03 00:38:00;;;;;;;4.55;2.25;;;;;;;6.53;80.42;97381.75;2625374;54;20027;-68
2021/11/03 00:40:29;;;;;;;2.80;2.28;;;;;;;6.57;80.62;97376.88;2624721;54;20538;-70
2021/11/03 00:42:59;;;;;;;4.47;2.30;;;;;;;6.62;80.50;97374.47;2625120;54;20027;-69
2021/11/03 00:45:29;;;;;;;3.20;2.30;;;;;;;6.68;80.22;97379.72;2624862;54;20030;-70
2021/11/03 00:48:00;;;;;;;3.05;2.28;;;;;;;6.72;80.18;97369.63;2625379;54;20047;-70
2021/11/03 00:50:34;;;;;;;8.32;3.13;;;;;;;6.78;80.13;97371.44;2625194;39;20425;-69
2021/11/03 00:53:07;;;;;;;3.80;2.75;;;;;;;6.81;80.00;97362.34;2624653;54;20134;-70
2021/11/03 00:55:37;;;;;;;2.95;2.33;;;;;;;6.69;79.74;97362.97;2624318;54;20114;-69
2021/11/03 00:58:07;;;;;;;5.78;2.65;;;;;;;6.65;79.34;97366.19;2625277;47;20146;-71
2021/11/03 01:00:37;;;;;;;2.67;2.47;;;;;;;6.55;79.82;97366.59;2624772;54;20065;-69
2021/11/03 01:03:09;;;;;;;4.13;2.58;;;;;;;6.50;80.04;97369.03;2624987;54;20035;-71
2021/11/03 01:05:40;;;;;;;2.70;2.08;;;;;;;6.47;80.05;97372.03;2625601;39;20431;-72
2021/11/03 01:08:14;;;;;;;2.05;1.80;;;;;;;6.51;80.40;97375.06;2626223;39;20399;-69
2021/11/03 01:10:46;;;;;;;3.28;1.88;;;;;;;6.56;80.67;97367.41;2624535;54;20034;-69
2021/11/03 01:13:18;;;;;;;7.32;2.42;;;;;;;6.59;80.50;97367.81;2622743;54;20058;-71
2021/11/03 01:15:49;;;;;;;4.25;2.60;;;;;;;6.60;80.43;97365.97;2622659;47;20037;-69
2021/11/03 01:18:18;;;;;;;4.90;2.60;;;;;;;6.63;80.50;97365.59;2622592;54;20035;-69
2021/11/03 01:20:48;;;;;;;5.95;1.90;;;;;;;6.67;80.89;97358.91;2624585;54;20027;-69
2021/11/03 01:23:21;;;;;;;2.95;1.80;;;;;;;6.65;80.38;97358.28;2624499;47;20037;-69
2021/11/03 01:25:53;;;;;;;3.05;1.63;;;;;;;6.64;80.37;97362.75;2624548;54;20046;-69
2021/11/03 01:28:23;;;;;;;3.03;1.80;;;;;;;6.68;80.49;97357.91;2622510;54;20061;-71
2021/11/03 01:30:53;;;;;;;4.05;1.85;;;;;;;6.71;80.69;97352.25;2623887;51;20031;-68
2021/11/03 01:33:24;;;;;;;2.40;1.88;;;;;;;6.70;80.78;97340.94;2622877;54;20031;-69
2021/11/03 01:35:53;;;;;;;3.67;1.90;;;;;;;6.75;80.92;97342.16;2622370;47;20054;-70
2021/11/03 01:38:26;;;;;;;5.10;2.22;;;;;;;6.79;80.82;97338.09;2622384;54;20031;-70
2021/11/03 01:40:56;;;;;;;3.63;1.92;;;;;;;6.82;80.55;97333.25;2623027;54;20027;-70
2021/11/03 01:43:40;;;;;;;2.95;2.17;;;;;;;6.81;80.42;97336.88;2621999;54;20038;-70
2021/11/03 01:46:25;;;;;;;2.22;2.00;;;;;;;6.78;80.83;97341.75;2622189;54;20022;-70
2021/11/03 01:49:09;;;;;;;2.55;2.35;;;;;;;6.76;80.90;97334.06;2621800;54;20618;-69
2021/11/03 01:51:43;;;;;;;3.10;1.88;;;;;;;6.79;80.96;97344.16;2622833;54;20042;-72
2021/11/03 01:54:20;;;;;;;3.60;2.35;;;;;;;6.80;81.01;97340.50;2624274;54;20075;-71
2021/11/03 01:56:50;;;;;;;2.67;1.90;;;;;;;6.74;81.14;97340.53;2624354;54;20061;-71
2021/11/03 01:59:27;;;;;;;3.17;2.30;;;;;;;6.75;80.78;97337.69;2624402;54;20034;-69
2021/11/03 02:01:58;;;;;;;8.65;2.20;;;;;;;6.77;81.30;97340.13;2624745;54;20033;-70
2021/11/03 02:04:28;;;;;;;2.53;2.30;;;;;;;6.74;80.82;97345.78;2623980;51;20046;-70
2021/11/03 02:06:59;;;;;;;2.92;2.03;;;;;;;6.73;81.44;97344.97;2624072;51;20034;-69
2021/11/03 02:09:32;;;;;;;3.05;2.13;;;;;;;6.79;81.36;97344.16;2624414;54;20534;-70
2021/11/03 02:12:01;;;;;;;2.90;1.90;;;;;;;6.86;81.36;97346.78;2623712;54;20031;-70
2021/11/03 02:14:32;;;;;;;3.00;1.95;;;;;;;6.96;81.85;97355.03;2624572;54;20022;-70
2021/11/03 02:17:02;;;;;;;5.30;2.03;;;;;;;7.13;81.56;97368.56;2626230;39;20449;-70
2021/11/03 02:19:35;;;;;;;2.58;1.90;;;;;;;7.24;81.55;97360.03;2624532;54;20026;-69
2021/11/03 02:22:09;;;;;;;;;;;;;;;7.23;80.35;97357.63;2624385;47;20595;-69
2021/11/03 02:24:50;;;;;;;2.00;1.80;;;;;;;7.14;80.28;97352.59;2624642;46;19942;-68
2021/11/03 02:27:24;;;;;;;3.00;2.13;;;;;;;7.06;80.29;97342.31;2625232;54;20573;-67
2021/11/03 02:29:54;;;;;;;4.05;2.20;;;;;;;7.05;80.64;97351.19;2624626;54;20011;-68
2021/11/03 02:32:27;;;;;;;2.35;1.75;;;;;;;7.05;81.10;97348.56;2624003;54;20050;-69
2021/11/03 02:34:57;;;;;;;3.87;2.00;;;;;;;7.11;80.89;97352.19;2623956;54;20025;-70
2021/11/03 02:37:45;;;;;;;2.17;1.95;;;;;;;7.10;80.72;97345.31;2622885;47;20299;-68
2021/11/03 02:40:46;;;;;;;3.50;1.90;;;;;;;7.07;81.21;97343.91;2622702;47;20039;-67
2021/11/03 02:43:25;;;;;;;2.08;1.85;;;;;;;7.09;81.18;97347.13;2622073;47;20027;-70
2021/11/03 02:45:58;;;;;;;5.95;2.38;;;;;;;7.09;81.06;97343.69;2622080;47;20050;-67
2021/11/03 02:48:30;;;;;;;6.68;2.90;;;;;;;7.06;81.38;97336.22;2622038;54;20034;-67
2021/11/03 02:51:08;;;;;;;2.58;2.38;;;;;;;7.08;80.97;97331.59;2621159;47;20038;-67
2021/11/03 02:53:43;;;;;;;3.70;2.67;;;;;;;7.06;81.30;97330.97;2621956;54;20034;-70
2021/11/03 02:56:14;;;;;;;3.53;2.87;;;;;;;7.05;81.28;97327.53;2622134;54;20077;-67
2021/11/03 02:58:46;;;;;;;3.50;2.53;;;;;;;7.05;81.29;97321.47;2622619;54;20287;-68
2021/11/03 03:01:21;;;;;;;3.47;2.72;;;;;;;7.03;81.30;97324.31;2624537;47;20034;-69
2021/11/03 03:03:52;;;;;;;3.28;2.58;;;;;;;7.07;81.99;97322.09;2622186;54;20122;-68
2021/11/03 03:06:25;;;;;;;5.82;2.90;;;;;;;7.12;82.12;97323.06;2621669;54;20085;-68
2021/11/03 03:08:58;;;;;;;3.72;2.67;;;;;;;7.19;82.11;97318.63;2622534;54;20568;-70
2021/11/03 03:11:33;;;;;;;4.00;2.88;;;;;;;7.22;81.79;97322.63;2623376;47;20026;-68
2021/11/03 03:14:07;;;;;;;4.47;3.55;;;;;;;7.31;81.91;97321.41;2622042;54;20077;-68
2021/11/03 03:16:37;;;;;;;4.95;3.83;;;;;;;7.34;81.90;97310.47;2622834;54;20038;-70
2021/11/03 03:19:07;;;;;;;5.65;3.50;;;;;;;7.33;81.47;97319.38;2621892;54;20048;-69
2021/11/03 03:21:37;;;;;;;6.07;3.72;;;;;;;7.30;81.44;97308.47;2621887;54;20038;-69
2021/11/03 03:24:09;;;;;;;4.68;4.13;;;;;;;7.30;81.95;97304.00;2623448;54;20034;-69
2021/11/03 03:26:40;;;;;;;4.78;3.47;;;;;;;7.26;81.61;97302.81;2623050;51;20525;-69
2021/11/03 03:29:13;;;;;;;4.13;3.58;;;;;;;7.30;82.28;97301.38;2623539;54;20050;-69
2021/11/03 03:31:44;;;;;;;5.72;4.43;;;;;;;7.31;81.98;97297.75;2623649;54;20027;-69
2021/11/03 03:34:18;;;;;;;5.18;4.32;;;;;;;7.32;82.11;97298.56;2623412;39;20471;-69
2021/11/03 03:36:50;;;;;;;5.00;4.20;;;;;;;7.33;81.86;97292.28;2623162;51;20029;-68
2021/11/03 03:39:21;;;;;;;5.10;4.10;;;;;;;7.34;82.22;97284.16;2622957;54;20038;-69
2021/11/03 03:41:55;;;;;;;4.72;3.80;;;;;;;7.35;81.98;97290.25;2623809;54;20038;-69
2021/11/03 03:44:28;;;;;;;5.68;4.20;;;;;;;7.35;82.23;97291.06;2625096;47;20045;-70
2021/11/03 03:46:59;;;;;;;4.47;3.70;;;;;;;7.33;82.10;97281.75;2625595;51;20174;-69
2021/11/03 03:49:30;;;;;;;7.75;4.63;;;;;;;7.34;81.89;97273.66;2625101;46;20117;-69
2021/11/03 03:52:00;;;;;;;5.70;4.60;;;;;;;7.31;82.30;97271.47;2625358;54;20038;-70
2021/11/03 03:54:30;;;;;;;5.50;4.45;;;;;;;7.28;82.36;97274.50;2625463;47;20038;-70
2021/11/03 03:57:00;;;;;;;7.63;4.57;;;;;;;7.25;82.54;97274.13;2625800;54;20098;-69
2021/11/03 03:59:35;;;;;;;5.80;5.20;;;;;;;7.20;82.20;97262.41;2625144;54;20034;-70
2021/11/03 04:02:06;;;;;;;5.07;4.18;;;;;;;7.20;82.72;97270.28;2624496;54;20076;-69
2021/11/03 04:04:36;;;;;;;7.32;3.78;;;;;;;7.22;82.61;97264.00;2626123;39;20422;-70
2021/11/03 04:07:06;;;;;;;5.72;3.70;;;;;;;7.17;82.60;97257.56;2625685;54;20026;-71
2021/11/03 04:09:37;;;;;;;4.47;3.92;;;;;;;7.18;82.87;97260.97;2625110;54;20561;-69
2021/11/03 04:12:10;;;;;;;5.07;4.32;;;;;;;7.18;82.85;97255.72;2624911;54;20033;-69
2021/11/03 04:14:43;;;;;;;8.43;4.70;;;;;;;7.23;83.10;97257.75;2625129;47;20054;-71
2021/11/03 04:17:13;;;;;;;6.63;4.47;;;;;;;7.21;82.60;97247.44;2625716;54;20122;-69
2021/11/03 04:19:43;;;;;;;5.97;4.32;;;;;;;7.23;82.77;97261.19;2624604;54;20027;-69
2021/11/03 04:22:12;;;;;;;6.50;4.35;;;;;;;7.26;82.71;97254.69;2624627;54;20057;-72
2021/11/03 04:24:46;;;;;;;5.32;4.82;;;;;;;7.24;82.70;97252.28;2625846;47;20026;-71
2021/11/03 04:27:16;;;;;;;5.40;4.85;;;;;;;7.22;82.44;97245.59;2625658;54;20083;-69
2021/11/03 04:29:48;;;;;;;9.68;5.88;;;;;;;7.20;82.84;97243.19;2624958;47;20029;-69
2021/11/03 04:32:19;;;;;;;5.35;4.78;;;;;;;7.15;82.98;97232.53;2625054;39;20786;-68
2021/11/03 04:34:49;;;;;;;5.22;4.70;;;;;;;7.09;82.99;97226.25;2625040;47;20033;-68
2021/11/03 04:37:19;;;;;;;5.53;4.35;;;;;;;7.08;83.17;97221.22;2626530;39;20445;-71
2021/11/03 04:39:53;;;;;;;6.15;4.68;;;;;;;7.08;83.30;97211.50;2626364;39;20461;-70
2021/11/03 04:42:23;;;;;;;17.98;12.43;;;;;;;7.11;83.60;97218.19;2625606;47;20034;-70
2021/11/03 04:44:55;;;;;;;8.65;6.10;;;;;;;7.11;83.40;97216.34;2625591;47;20034;-70
2021/11/03 04:47:25;;;;;;;5.50;4.22;;;;;;;7.05;82.93;97205.88;2625586;47;20034;-71
2021/11/03 04:49:57;;;;;;;5.10;4.32;;;;;;;7.06;83.53;97205.69;2625383;54;20046;-70
2021/11/03 04:52:29;;;;;;;5.13;4.35;;;;;;;7.04;83.09;97204.25;2625463;54;20038;-71
2021/11/03 04:54:58;;;;;;;6.03;4.97;;;;;;;7.05;83.45;97200.59;2623340;39;20357;-73
2021/11/03 04:57:30;;;;;;;4.88;4.15;;;;;;;7.03;83.32;97205.28;2624687;54;20026;-70
2021/11/03 05:00:06;;;;;;;4.80;4.35;;;;;;;7.04;83.25;97199.81;2626880;39;20465;-70
2021/11/03 05:02:39;;;;;;;5.50;4.65;;;;;;;7.04;83.60;97194.56;2624216;47;20026;-71
2021/11/03 05:05:09;;;;;;;4.68;4.25;;;;;;;7.03;83.69;97192.94;2624379;54;20025;-71
2021/11/03 05:07:41;;;;;;;5.15;4.07;;;;;;;7.07;83.54;97190.72;2624616;54;20093;-69
2021/11/03 05:10:11;;;;;;;5.05;4.53;;;;;;;7.09;83.50;97189.47;2623909;47;20146;-70
2021/11/03 05:12:41;;;;;;;4.50;3.50;;;;;;;7.12;83.52;97191.69;2626532;47;20545;-70
2021/11/03 05:15:13;;;;;;;3.95;3.65;;;;;;;7.20;83.65;97185.38;2626367;54;20068;-70
2021/11/03 05:17:45;;;;;;;3.50;3.20;;;;;;;7.25;83.54;97185.56;2629106;39;20433;-70
2021/11/03 05:20:18;;;;;;;3.42;3.13;;;;;;;7.26;83.01;97183.72;2625271;47;20033;-69
2021/11/03 05:22:48;;;;;;;4.13;3.20;;;;;;;7.24;83.26;97176.06;2623642;47;20106;-70
2021/11/03 05:25:20;;;;;;;3.17;2.88;;;;;;;7.21;82.91;97173.84;2626090;54;20034;-71
2021/11/03 05:27:51;;;;;;;3.80;3.45;;;;;;;7.17;82.71;97164.78;2625141;39;20496;-71
2021/11/03 05:30:25;;;;;;;4.90;3.72;;;;;;;7.16;83.06;97158.72;2624065;54;20098;-69
2021/11/03 05:32:55;;;;;;;4.32;3.25;;;;;;;7.15;83.11;97153.69;2625001;54;20041;-70
2021/11/03 05:35:26;;;;;;;3.10;2.42;;;;;;;7.11;82.69;97147.22;2625027;54;20023;-70
2021/11/03 05:37:56;;;;;;;3.50;2.97;;;;;;;7.06;82.89;97154.91;2625853;54;20030;-70
2021/11/03 05:40:28;;;;;;;2.92;2.65;;;;;;;7.06;83.25;97153.13;2625470;54;20018;-70
2021/11/03 05:42:59;;;;;;;3.45;3.15;;;;;;;7.11;83.21;97144.59;2625298;54;20031;-71
2021/11/03 05:45:32;;;;;;;3.33;3.00;;;;;;;7.11;83.08;97152.50;2624436;54;20042;-71
2021/11/03 05:48:01;;;;;;;3.17;2.88;;;;;;;7.15;83.08;97143.97;2625035;39;20428;-69
2021/11/03 05:50:34;;;;;;;3.50;3.20;;;;;;;7.15;83.02;97151.06;2624840;51;20046;-69
2021/11/03 05:53:05;;;;;;;5.05;3.38;;;;;;;7.16;83.50;97142.16;2625909;54;20034;-70
2021/11/03 05:55:36;;;;;;;3.47;3.17;;;;;;;7.14;83.12;97136.28;2625998;39;20423;-69
2021/11/03 05:58:06;;;;;;;4.30;3.20;;;;;;;7.11;83.18;97131.47;2625693;54;20668;-68
2021/11/03 06:00:41;;;;;;;2.75;2.45;;;;;;;7.11;83.33;97144.59;2625399;54;20034;-69
2021/11/03 06:03:11;;;;;;;2.92;2.70;;;;;;;7.20;83.94;97133.63;2625364;54;20114;-70
2021/11/03 06:05:40;;;;;;;4.53;3.03;;;;;;;7.38;83.61;97146.03;2625316;54;20023;-70
2021/11/03 06:08:10;;;;;;;5.88;3.25;;;;;;;7.45;83.20;97127.59;2625830;54;20026;-69
2021/11/03 06:10:44;;;;;;;5.97;3.83;;;;;;;7.30;82.45;97104.22;2626238;54;20042;-70
2021/11/03 06:13:16;;;;;;;4.18;3.40;;;;;;;7.24;82.60;97110.34;2625251;54;20035;-72
2021/11/03 06:15:48;;;;;;;5.43;3.30;;;;;;;7.18;82.98;97126.97;2625576;54;20094;-72
2021/11/03 06:18:18;;;;;;;3.83;3.42;;;;;;;7.23;83.73;97128.97;2621564;54;20029;-70
2021/11/03 06:20:48;;;;;;;3.83;3.47;;;;;;;7.25;83.58;97126.94;2620495;54;20031;-69
2021/11/03 06:23:18;;;;;;;3.05;2.70;;;;;;;7.30;83.06;97125.25;2621170;39;20094;-71
2021/11/03 06:25:47;;;;;;;4.35;3.00;;;;;;;7.32;82.75;97125.88;2620599;54;20553;-70
2021/11/03 06:28:17;;;;;;;4.55;3.10;;;;;;;7.36;83.24;97129.69;2621387;54;20030;-71
2021/11/03 06:30:50;;;;;;;12.98;10.20;;;;;;;7.37;82.69;97126.03;2625006;46;20039;-70
2021/11/03 06:33:19;;;;;;;8.90;6.85;;;;;;;7.34;82.67;97129.06;2626125;46;20038;-68
2021/11/03 06:35:51;;;;;;;7.15;5.63;;;;;;;7.32;82.39;97136.38;2626485;39;20604;-70
2021/11/03 06:38:21;;;;;;;7.97;6.50;;;;;;;7.30;82.49;97129.72;2625317;47;20548;-72
2021/11/03 06:40:51;;;;;;;6.20;5.47;;;;;;;7.33;83.14;97131.94;2625846;39;20414;-72
2021/11/03 06:43:21;;;;;;;4.25;3.65;;;;;;;7.36;82.75;97123.63;2625170;47;20094;-70
2021/11/03 06:45:53;;;;;;;3.42;3.13;;;;;;;7.32;82.84;97125.06;2626276;54;20037;-70
2021/11/03 06:48:23;;;;;;;4.18;3.78;;;;;;;7.32;82.99;97122.44;2625720;54;20030;-71
2021/11/03 06:50:53;;;;;;;5.57;3.50;;;;;;;7.34;83.07;97118.56;2625646;54;20045;-71
2021/11/03 06:53:25;;;;;;;3.90;3.00;;;;;;;7.33;82.96;97122.22;2627569;39;20434;-71
2021/11/03 06:55:55;;;;;;;4.03;3.63;;;;;;;7.35;82.55;97128.09;2626549;54;20033;-71
2021/11/03 06:58:28;;;;;;;4.60;3.33;;;;;;;7.32;82.38;97123.25;2625006;47;20030;-71
2021/11/03 07:01:00;;;;;;;4.03;2.95;;;;;;;7.29;82.51;97122.84;2625183;47;20038;-72
2021/11/03 07:03:32;;;;;;;4.22;3.60;;;;;;;7.29;82.63;97122.84;2626309;54;20080;-71
2021/11/03 07:06:02;;;;;;;3.58;3.28;;;;;;;7.34;82.57;97136.16;2624785;47;20506;-70
2021/11/03 07:08:32;;;;;;;4.50;2.97;;;;;;;7.35;82.55;97132.53;2625001;47;20043;-70
2021/11/03 07:11:03;;;;;;;4.32;3.13;;;;;;;7.39;82.88;97136.34;2623750;54;20034;-70
2021/11/03 07:13:35;;;;;;;4.05;3.00;;;;;;;7.39;82.49;97131.09;2625089;54;20549;-70
2021/11/03 07:16:07;;;;;;;5.28;2.90;;;;;;;7.40;82.70;97145.84;2624542;54;20027;-70
2021/11/03 07:18:37;;;;;;;4.13;2.95;;;;;;;7.38;82.52;97142.59;2625636;54;20038;-76
2021/11/03 07:21:07;;;;;;;3.75;3.10;;;;;;;7.41;82.83;97143.00;2625638;54;20037;-70
2021/11/03 07:23:37;;;;;;;3.53;3.22;;;;;;;7.44;82.46;97147.03;2625492;54;20034;-71
2021/11/03 07:26:07;;;;;;;4.72;3.20;;;;;;;7.45;82.38;97146.81;2625334;46;20035;-70
2021/11/03 07:28:38;;;;;;;5.13;3.40;;;;;;;7.49;82.25;97149.00;2626000;54;20027;-69
2021/11/03 07:31:11;;;;;;;3.83;3.10;;;;;;;7.48;82.43;97152.66;2625286;46;20556;-70
2021/11/03 07:33:42;;;;;;;3.97;3.53;;;;;;;7.53;82.87;97152.81;2626418;54;20030;-71
2021/11/03 07:36:15;;;;;;;5.22;4.72;;;;;;;7.55;82.27;97142.88;2626510;54;20045;-71
2021/11/03 07:38:45;;;;;;;6.20;3.70;;;;;;;7.57;82.30;97133.78;2626847;54;20033;-71
2021/11/03 07:41:34;;;;;;;5.63;3.80;;;;;;;7.60;82.36;97149.13;2626058;54;20098;-71
2021/11/03 07:44:05;;;;;;;4.45;3.63;;;;;;;7.58;82.04;97140.63;2626045;54;20039;-70
2021/11/03 07:46:37;;;;;;;6.03;3.90;;;;;;;7.63;82.35;97153.16;2625949;54;20113;-72
2021/11/03 07:49:07;;;;;;;4.63;3.92;;;;;;;7.65;82.05;97154.56;2626198;54;20031;-72
2021/11/03 07:51:37;;;;;;;4.45;3.55;;;;;;;7.67;81.81;97147.28;2625652;54;20037;-72
2021/11/03 07:54:07;;;;;;;4.55;3.05;;;;;;;7.69;82.26;97158.38;2625256;47;20038;-72
2021/11/03 07:56:42;;;;;;;5.55;3.63;;;;;;;7.79;82.05;97157.06;2625136;54;20049;-71
2021/11/03 07:59:13;;;;;;;4.30;3.90;;;;;;;7.99;82.44;97154.28;2626232;54;20045;-70
2021/11/03 08:01:46;;;;;;;3.95;3.45;;;;;;;8.05;81.79;97164.75;2624800;54;20034;-69
2021/11/03 08:04:16;;;;;;;4.13;3.40;;;;;;;8.10;81.42;97153.56;2622703;54;20038;-69
2021/11/03 08:06:47;;;;;;;3.45;3.13;;;;;;;8.10;81.59;97154.38;2622808;54;20033;-69
2021/11/03 08:09:17;;;;;;;4.07;3.50;;;;;;;8.10;81.14;97158.84;2622919;54;20046;-70
2021/11/03 08:11:49;;;;;;;3.67;3.38;;;;;;;8.04;81.17;97157.88;2626058;54;20038;-69
2021/11/03 08:14:22;;;;;;;3.72;3.40;;;;;;;8.07;81.06;97165.34;2626869;47;20042;-71
2021/11/03 08:16:58;;;;;;;6.90;3.67;;;;;;;8.05;80.86;97167.38;2627732;54;20027;-71
2021/11/03 08:19:32;;;;;;;3.58;3.10;;;;;;;8.07;81.04;97167.16;2627362;54;20027;-73
2021/11/03 08:22:03;;;;;;;3.10;2.80;;;;;;;8.09;81.50;97176.47;2626392;47;20042;-70
2021/11/03 08:24:32;;;;;;;3.10;2.80;;;;;;;8.16;81.84;97168.50;2626528;54;20569;-70
2021/11/03 08:27:02;;;;;;;4.00;3.67;;;;;;;8.25;81.48;97169.84;2625744;54;20038;-69
2021/11/03 08:29:38;;;;;;;5.05;3.50;;;;;;;8.28;81.44;97169.38;2623811;54;20081;-70
2021/11/03 08:32:15;;;;;;;4.80;3.50;;;;;;;8.27;80.60;97172.25;2624945;39;20419;-69
2021/11/03 08:34:46;;;;;;;5.32;3.67;;;;;;;8.25;80.84;97174.31;2623887;39;20426;-70
2021/11/03 08:37:20;;;;;;;6.03;2.80;;;;;;;8.27;81.33;97174.88;2620270;54;20085;-71
2021/11/03 08:39:55;;;;;;;4.97;3.45;;;;;;;8.34;81.14;97176.44;2620641;54;20041;-69
2021/11/03 08:42:25;;;;;;;5.72;3.75;;;;;;;8.35;81.32;97174.59;2618435;54;20035;-70
2021/11/03 08:44:56;;;;;;;4.43;3.70;;;;;;;8.37;81.08;97177.84;2619068;54;20037;-69
2021/11/03 08:47:29;;;;;;;4.82;3.58;;;;;;;8.38;81.48;97180.25;2619391;39;20438;-69
2021/11/03 08:49:58;;;;;;;7.68;3.10;;;;;;;8.43;80.94;97179.59;2619444;54;20034;-69
2021/11/03 08:52:28;;;;;;;4.68;3.40;;;;;;;8.47;81.37;97185.25;2619750;54;20039;-70
2021/11/03 08:54:57;;;;;;;4.90;3.47;;;;;;;8.51;81.36;97184.59;2620890;54;20034;-70
2021/11/03 08:57:27;;;;;;;5.70;3.97;;;;;;;8.59;81.34;97171.13;2625460;39;20411;-69
2021/11/03 08:59:58;;;;;;;6.47;3.33;;;;;;;8.63;80.95;97185.47;2625082;47;20037;-69
2021/11/03 09:02:30;;;;;;;7.57;4.70;;;;;;;8.73;81.65;97184.94;2624673;47;20034;-71
2021/11/03 09:05:00;;;;;;;5.50;3.83;;;;;;;8.81;81.91;97173.31;2624391;54;20034;-71
2021/11/03 09:07:29;;;;;;;2.67;2.30;;;;;;;8.85;81.70;97188.47;2623887;39;20437;-69
2021/11/03 09:09:59;;;;;;;5.00;1.98;;;;;;;8.92;81.24;97177.84;2623306;39;20429;-70
2021/11/03 09:12:29;;;;;;;1.88;1.77;;;;;;;8.98;80.48;97184.88;2625577;39;20438;-69
2021/11/03 09:14:58;;;;;;;6.30;1.90;;;;;;;9.04;80.59;97180.53;2625345;54;20038;-69
2021/11/03 09:17:31;;;;;;;3.03;1.70;;;;;;;9.09;80.87;97183.31;2624860;54;20050;-71
2021/11/03 09:20:00;;;;;;;5.90;3.75;;;;;;;9.15;80.39;97182.44;2623938;54;20030;-69
2021/11/03 09:22:30;;;;;;;2.28;1.38;;;;;;;9.21;79.95;97186.81;2623516;54;20037;-71
2021/11/03 09:25:00;;;;;;;2.38;1.38;;;;;;;9.24;80.16;97186.38;2624774;54;20573;-71
2021/11/03 09:27:30;;;;;;;1.67;1.58;;;;;;;9.29;80.01;97194.41;2623144;54;20069;-73
2021/11/03 09:29:59;;;;;;;2.30;2.05;;;;;;;9.29;79.65;97191.75;2621521;54;20023;-71
2021/11/03 09:32:35;;;;;;;1.67;1.38;;;;;;;9.29;79.69;97190.97;2619466;47;20561;-70
2021/11/03 09:35:06;;;;;;;1.23;1.10;;;;;;;9.31;79.43;97192.38;2620829;54;20065;-69
2021/11/03 09:37:37;;;;;;;5.40;3.78;;;;;;;9.38;79.55;97189.63;2620098;47;20030;-70
2021/11/03 09:40:10;;;;;;;1.45;1.23;;;;;;;9.42;79.05;97188.13;2620822;54;20049;-70
2021/11/03 09:42:40;;;;;;;2.10;1.20;;;;;;;9.50;78.94;97179.09;2619498;54;20053;-70
2021/11/03 09:45:18;;;;;;;2.05;1.58;;;;;;;9.58;78.99;97189.34;2620787;54;20026;-69
2021/11/03 09:48:10;;;;;;;3.22;1.80;;;;;;;9.74;79.40;97191.34;2621004;54;20038;-68
